createdAt,value
2018-10-21T00:00:32.470Z,1029.72
2018-10-21T00:01:32.679Z,1029.64
2018-10-21T00:02:32.329Z,1029.63
2018-10-21T00:03:32.363Z,1029.62
2018-10-21T00:04:32.539Z,1029.63
2018-10-21T00:05:32.379Z,1029.53
2018-10-21T00:06:32.719Z,1029.57
2018-10-21T00:07:32.736Z,1029.56
2018-10-21T00:08:32.336Z,1029.54
2018-10-21T00:09:32.408Z,1029.56
2018-10-21T00:10:32.414Z,1029.62
2018-10-21T00:11:32.757Z,1029.55
2018-10-21T00:12:32.456Z,1029.56
2018-10-21T00:13:32.694Z,1029.54
2018-10-21T00:14:32.366Z,1029.48
2018-10-21T00:15:33.237Z,1029.5
2018-10-21T00:16:32.397Z,1029.51
2018-10-21T00:17:32.592Z,1029.49
2018-10-21T00:18:32.445Z,1029.52
2018-10-21T00:19:32.270Z,1029.48
2018-10-21T00:20:32.398Z,1029.51
2018-10-21T00:21:32.250Z,1029.54
2018-10-21T00:22:32.724Z,1029.61
2018-10-21T00:23:32.483Z,1029.58
2018-10-21T00:24:32.780Z,1029.59
2018-10-21T00:25:32.324Z,1029.55
2018-10-21T00:26:32.269Z,1029.57
2018-10-21T00:27:32.638Z,1029.52
2018-10-21T00:28:32.916Z,1029.52
2018-10-21T00:29:32.268Z,1029.48
2018-10-21T00:30:32.509Z,1029.49
2018-10-21T00:31:32.896Z,1029.47
2018-10-21T00:32:32.899Z,1029.48
2018-10-21T00:33:32.367Z,1029.48
2018-10-21T00:34:32.392Z,1029.51
2018-10-21T00:35:32.648Z,1029.5
2018-10-21T00:36:32.672Z,1029.51
2018-10-21T00:37:32.476Z,1029.51
2018-10-21T00:38:32.332Z,1029.47
2018-10-21T00:39:32.384Z,1029.44
2018-10-21T00:40:32.424Z,1029.48
2018-10-21T00:41:32.252Z,1029.44
2018-10-21T00:42:32.724Z,1029.49
2018-10-21T00:43:32.316Z,1029.51
2018-10-21T00:44:32.376Z,1029.49
2018-10-21T00:45:33.045Z,1029.52
2018-10-21T00:46:32.389Z,1029.56
2018-10-21T00:47:32.356Z,1029.47
2018-10-21T00:48:32.525Z,1029.47
2018-10-21T00:49:33.004Z,1029.47
2018-10-21T00:50:32.325Z,1029.47
2018-10-21T00:51:32.583Z,1029.48
2018-10-21T00:52:32.340Z,1029.49
2018-10-21T00:53:32.276Z,1029.45
2018-10-21T00:54:32.237Z,1029.44
2018-10-21T00:55:32.385Z,1029.45
2018-10-21T00:56:32.435Z,1029.49
2018-10-21T00:57:32.302Z,1029.46
2018-10-21T00:58:32.381Z,1029.49
2018-10-21T00:59:32.269Z,1029.58
2018-10-21T01:00:32.264Z,1029.55
2018-10-21T01:01:32.202Z,1029.49
2018-10-21T01:02:32.435Z,1029.45
2018-10-21T01:03:32.311Z,1029.48
2018-10-21T01:04:32.155Z,1029.45
2018-10-21T01:05:32.244Z,1029.42
2018-10-21T01:06:32.536Z,1029.45
2018-10-21T01:07:32.412Z,1029.49
2018-10-21T01:08:32.469Z,1029.48
2018-10-21T01:09:32.716Z,1029.52
2018-10-21T01:10:32.818Z,1029.53
2018-10-21T01:11:32.286Z,1029.44
2018-10-21T01:12:32.354Z,1029.43
2018-10-21T01:13:32.490Z,1029.38
2018-10-21T01:14:32.717Z,1029.37
2018-10-21T01:15:32.776Z,1029.34
2018-10-21T01:16:32.929Z,1029.32
2018-10-21T01:17:32.345Z,1029.31
2018-10-21T01:18:32.388Z,1029.36
2018-10-21T01:19:32.297Z,1029.4
2018-10-21T01:20:32.631Z,1029.4
2018-10-21T01:21:32.434Z,1029.39
2018-10-21T01:22:32.239Z,1029.37
2018-10-21T01:23:32.649Z,1029.39
2018-10-21T01:24:32.410Z,1029.33
2018-10-21T01:25:32.562Z,1029.32
2018-10-21T01:26:32.394Z,1029.33
2018-10-21T01:27:32.603Z,1029.3
2018-10-21T01:28:32.522Z,1029.3
2018-10-21T01:29:32.355Z,1029.31
2018-10-21T01:30:32.362Z,1029.32
2018-10-21T01:31:32.489Z,1029.28
2018-10-21T01:32:32.718Z,1029.35
2018-10-21T01:33:32.796Z,1029.31
2018-10-21T01:34:32.197Z,1029.26
2018-10-21T01:35:32.266Z,1029.33
2018-10-21T01:36:33.387Z,1029.32
2018-10-21T01:37:32.380Z,1029.32
2018-10-21T01:38:32.458Z,1029.31
2018-10-21T01:39:32.400Z,1029.29
2018-10-21T01:40:32.289Z,1029.32
2018-10-21T01:41:32.438Z,1029.31
2018-10-21T01:42:32.547Z,1029.33
2018-10-21T01:43:32.508Z,1029.3
2018-10-21T01:44:32.425Z,1029.33
2018-10-21T01:45:32.417Z,1029.27
2018-10-21T01:46:32.392Z,1029.27
2018-10-21T01:47:32.348Z,1029.23
2018-10-21T01:48:32.298Z,1029.22
2018-10-21T01:49:32.359Z,1029.13
2018-10-21T01:50:32.463Z,1029.14
2018-10-21T01:51:32.233Z,1029.16
2018-10-21T01:52:32.757Z,1029.13
2018-10-21T01:53:32.750Z,1029.12
2018-10-21T01:54:32.545Z,1029.09
2018-10-21T01:55:32.409Z,1029.14
2018-10-21T01:56:32.428Z,1029.11
2018-10-21T01:57:32.259Z,1029.15
2018-10-21T01:58:32.424Z,1029.11
2018-10-21T01:59:32.451Z,1029.08
2018-10-21T02:00:32.687Z,1029.1
2018-10-21T02:01:32.194Z,1029.04
2018-10-21T02:02:32.553Z,1028.99
2018-10-21T02:03:32.850Z,1029.02
2018-10-21T02:04:32.335Z,1029
2018-10-21T02:05:32.447Z,1029.06
2018-10-21T02:06:32.229Z,1029
2018-10-21T02:07:32.687Z,1029.08
2018-10-21T02:08:32.374Z,1029.08
2018-10-21T02:09:32.262Z,1029.03
2018-10-21T02:10:32.409Z,1029.07
2018-10-21T02:11:32.354Z,1029.08
2018-10-21T02:12:32.449Z,1029.03
2018-10-21T02:13:32.348Z,1029.02
2018-10-21T02:14:32.245Z,1028.98
2018-10-21T02:15:32.213Z,1029
2018-10-21T02:16:32.726Z,1028.98
2018-10-21T02:17:32.734Z,1029.04
2018-10-21T02:18:32.596Z,1029.02
2018-10-21T02:19:32.381Z,1029.01
2018-10-21T02:20:32.334Z,1029.05
2018-10-21T02:21:32.403Z,1028.96
2018-10-21T02:22:32.294Z,1029.01
2018-10-21T02:23:32.398Z,1028.98
2018-10-21T02:24:32.453Z,1029
2018-10-21T02:25:32.308Z,1029.05
2018-10-21T02:26:32.776Z,1029.03
2018-10-21T02:27:32.882Z,1029.04
2018-10-21T02:28:32.277Z,1029.01
2018-10-21T02:29:32.197Z,1029.02
2018-10-21T02:30:32.498Z,1029
2018-10-21T02:31:32.735Z,1029.03
2018-10-21T02:32:32.431Z,1029.02
2018-10-21T02:33:33.210Z,1029.04
2018-10-21T02:34:32.264Z,1029.02
2018-10-21T02:35:32.287Z,1028.89
2018-10-21T02:36:32.200Z,1028.95
2018-10-21T02:37:32.189Z,1028.96
2018-10-21T02:38:32.368Z,1028.92
2018-10-21T02:39:32.415Z,1028.92
2018-10-21T02:40:32.568Z,1028.96
2018-10-21T02:41:32.319Z,1028.98
2018-10-21T02:42:32.393Z,1028.97
2018-10-21T02:43:32.728Z,1028.97
2018-10-21T02:44:32.224Z,1028.98
2018-10-21T02:45:32.328Z,1028.98
2018-10-21T02:46:32.362Z,1028.95
2018-10-21T02:47:32.194Z,1028.93
2018-10-21T02:48:32.317Z,1028.89
2018-10-21T02:49:32.653Z,1028.96
2018-10-21T02:50:32.660Z,1028.94
2018-10-21T02:51:32.909Z,1028.9
2018-10-21T02:52:32.397Z,1028.89
2018-10-21T02:53:32.763Z,1028.93
2018-10-21T02:54:32.329Z,1028.91
2018-10-21T02:55:32.279Z,1028.94
2018-10-21T02:56:32.438Z,1028.96
2018-10-21T02:57:32.792Z,1028.95
2018-10-21T02:58:32.307Z,1028.92
2018-10-21T02:59:32.336Z,1028.93
2018-10-21T03:00:32.699Z,1028.93
2018-10-21T03:01:32.440Z,1028.95
2018-10-21T03:02:32.212Z,1028.95
2018-10-21T03:03:32.381Z,1028.95
2018-10-21T03:04:32.416Z,1029
2018-10-21T03:05:32.331Z,1028.99
2018-10-21T03:06:32.617Z,1029
2018-10-21T03:07:32.263Z,1029.03
2018-10-21T03:08:32.247Z,1029.06
2018-10-21T03:09:32.292Z,1029.02
2018-10-21T03:10:32.798Z,1029.08
2018-10-21T03:11:32.263Z,1029.06
2018-10-21T03:12:32.352Z,1029.09
2018-10-21T03:13:32.393Z,1029.12
2018-10-21T03:14:32.319Z,1029.15
2018-10-21T03:15:32.236Z,1029.13
2018-10-21T03:16:32.344Z,1029.09
2018-10-21T03:17:32.583Z,1029.08
2018-10-21T03:18:32.534Z,1029.1
2018-10-21T03:19:32.559Z,1029.16
2018-10-21T03:20:32.525Z,1029.17
2018-10-21T03:21:32.431Z,1029.21
2018-10-21T03:22:32.336Z,1029.22
2018-10-21T03:23:32.638Z,1029.2
2018-10-21T03:24:32.512Z,1029.2
2018-10-21T03:25:32.259Z,1029.2
2018-10-21T03:26:32.436Z,1029.19
2018-10-21T03:27:32.223Z,1029.22
2018-10-21T03:28:32.297Z,1029.3
2018-10-21T03:29:32.532Z,1029.27
2018-10-21T03:30:32.268Z,1029.3
2018-10-21T03:31:32.597Z,1029.39
2018-10-21T03:32:32.328Z,1029.42
2018-10-21T03:33:33.083Z,1029.44
2018-10-21T03:34:32.956Z,1029.49
2018-10-21T03:35:32.715Z,1029.53
2018-10-21T03:36:32.302Z,1029.51
2018-10-21T03:37:32.693Z,1029.47
2018-10-21T03:38:32.653Z,1029.39
2018-10-21T03:39:32.401Z,1029.37
2018-10-21T03:40:32.304Z,1029.38
2018-10-21T03:41:32.233Z,1029.36
2018-10-21T03:42:32.353Z,1029.34
2018-10-21T03:43:32.212Z,1029.33
2018-10-21T03:44:32.318Z,1029.34
2018-10-21T03:45:32.316Z,1029.31
2018-10-21T03:46:32.242Z,1029.35
2018-10-21T03:47:32.204Z,1029.32
2018-10-21T03:48:32.470Z,1029.36
2018-10-21T03:49:32.220Z,1029.37
2018-10-21T03:50:32.409Z,1029.39
2018-10-21T03:51:32.260Z,1029.38
2018-10-21T03:52:32.168Z,1029.35
2018-10-21T03:53:32.379Z,1029.37
2018-10-21T03:54:32.204Z,1029.37
2018-10-21T03:55:32.137Z,1029.39
2018-10-21T03:56:32.151Z,1029.35
2018-10-21T03:57:32.324Z,1029.37
2018-10-21T03:58:32.548Z,1029.34
2018-10-21T03:59:32.370Z,1029.38
2018-10-21T04:00:32.330Z,1029.43
2018-10-21T04:01:32.274Z,1029.4
2018-10-21T04:02:32.328Z,1029.41
2018-10-21T04:03:32.730Z,1029.42
2018-10-21T04:04:32.355Z,1029.42
2018-10-21T04:05:32.205Z,1029.41
2018-10-21T04:06:32.358Z,1029.41
2018-10-21T04:07:32.214Z,1029.45
2018-10-21T04:08:32.372Z,1029.48
2018-10-21T04:09:32.259Z,1029.48
2018-10-21T04:10:32.151Z,1029.51
2018-10-21T04:11:32.273Z,1029.45
2018-10-21T04:12:32.262Z,1029.49
2018-10-21T04:13:32.484Z,1029.5
2018-10-21T04:14:32.573Z,1029.51
2018-10-21T04:15:32.403Z,1029.52
2018-10-21T04:16:32.399Z,1029.49
2018-10-21T04:17:32.304Z,1029.48
2018-10-21T04:18:32.250Z,1029.47
2018-10-21T04:19:32.320Z,1029.45
2018-10-21T04:20:32.530Z,1029.49
2018-10-21T04:21:32.436Z,1029.47
2018-10-21T04:22:32.397Z,1029.46
2018-10-21T04:23:32.247Z,1029.42
2018-10-21T04:24:32.580Z,1029.4
2018-10-21T04:25:32.302Z,1029.44
2018-10-21T04:26:32.408Z,1029.42
2018-10-21T04:27:32.356Z,1029.39
2018-10-21T04:28:32.219Z,1029.32
2018-10-21T04:29:32.457Z,1029.31
2018-10-21T04:30:32.698Z,1029.32
2018-10-21T04:31:32.407Z,1029.29
2018-10-21T04:32:32.162Z,1029.22
2018-10-21T04:33:32.376Z,1029.22
2018-10-21T04:34:32.520Z,1029.18
2018-10-21T04:35:32.549Z,1029.12
2018-10-21T04:36:32.381Z,1029.13
2018-10-21T04:37:32.242Z,1029.12
2018-10-21T04:38:32.310Z,1029.1
2018-10-21T04:39:32.156Z,1029.07
2018-10-21T04:40:32.119Z,1029.05
2018-10-21T04:41:32.263Z,1029.13
2018-10-21T04:42:32.266Z,1029.1
2018-10-21T04:43:32.756Z,1029.06
2018-10-21T04:44:32.277Z,1029.08
2018-10-21T04:45:32.287Z,1029.04
2018-10-21T04:46:32.756Z,1029.05
2018-10-21T04:47:32.417Z,1028.99
2018-10-21T04:48:32.381Z,1029
2018-10-21T04:49:32.695Z,1028.99
2018-10-21T04:50:32.327Z,1028.98
2018-10-21T04:51:32.363Z,1029
2018-10-21T04:52:32.388Z,1029.01
2018-10-21T04:53:32.358Z,1028.99
2018-10-21T04:54:32.500Z,1029.01
2018-10-21T04:55:32.450Z,1029.04
2018-10-21T04:56:32.285Z,1028.99
2018-10-21T04:57:32.319Z,1028.99
2018-10-21T04:58:32.393Z,1029.03
2018-10-21T04:59:32.213Z,1028.98
2018-10-21T05:00:32.531Z,1028.96
2018-10-21T05:01:32.201Z,1028.96
2018-10-21T05:02:32.215Z,1028.92
2018-10-21T05:03:32.370Z,1028.92
2018-10-21T05:04:32.608Z,1028.95
2018-10-21T05:05:32.412Z,1028.95
2018-10-21T05:06:32.161Z,1028.95
2018-10-21T05:07:32.639Z,1028.93
2018-10-21T05:08:32.120Z,1028.89
2018-10-21T05:09:32.225Z,1028.88
2018-10-21T05:10:32.262Z,1028.89
2018-10-21T05:11:32.558Z,1028.82
2018-10-21T05:12:32.271Z,1028.85
2018-10-21T05:13:32.128Z,1028.82
2018-10-21T05:14:32.476Z,1028.86
2018-10-21T05:15:32.362Z,1028.88
2018-10-21T05:16:32.526Z,1028.9
2018-10-21T05:17:32.127Z,1028.87
2018-10-21T05:18:32.476Z,1028.91
2018-10-21T05:19:32.320Z,1028.87
2018-10-21T05:20:32.346Z,1028.87
2018-10-21T05:21:32.592Z,1028.88
2018-10-21T05:22:32.755Z,1028.85
2018-10-21T05:23:32.131Z,1028.85
2018-10-21T05:24:32.367Z,1028.89
2018-10-21T05:25:32.769Z,1028.91
2018-10-21T05:26:32.373Z,1028.91
2018-10-21T05:27:32.291Z,1028.9
2018-10-21T05:28:32.291Z,1028.91
2018-10-21T05:29:32.560Z,1028.9
2018-10-21T05:30:32.303Z,1028.89
2018-10-21T05:31:32.362Z,1028.89
2018-10-21T05:32:32.285Z,1028.86
2018-10-21T05:33:32.259Z,1028.85
2018-10-21T05:34:32.300Z,1028.86
2018-10-21T05:35:32.287Z,1028.82
2018-10-21T05:36:32.438Z,1028.82
2018-10-21T05:37:32.147Z,1028.81
2018-10-21T05:38:32.127Z,1028.81
2018-10-21T05:39:32.204Z,1028.85
2018-10-21T05:40:32.568Z,1028.88
2018-10-21T05:41:32.147Z,1028.92
2018-10-21T05:42:32.336Z,1028.86
2018-10-21T05:43:32.284Z,1028.91
2018-10-21T05:44:32.283Z,1028.89
2018-10-21T05:45:32.225Z,1028.91
2018-10-21T05:46:32.438Z,1028.88
2018-10-21T05:47:32.305Z,1028.87
2018-10-21T05:48:32.130Z,1028.89
2018-10-21T05:49:32.314Z,1028.89
2018-10-21T05:50:32.348Z,1028.9
2018-10-21T05:51:32.161Z,1028.9
2018-10-21T05:52:32.408Z,1028.96
2018-10-21T05:53:32.522Z,1028.95
2018-10-21T05:54:32.603Z,1028.95
2018-10-21T05:55:32.489Z,1028.96
2018-10-21T05:56:32.254Z,1028.95
2018-10-21T05:57:32.240Z,1028.93
2018-10-21T05:58:32.152Z,1028.98
2018-10-21T05:59:32.309Z,1028.97
2018-10-21T06:00:32.447Z,1029.02
2018-10-21T06:01:32.291Z,1028.98
2018-10-21T06:02:32.540Z,1029.01
2018-10-21T06:03:32.277Z,1028.96
2018-10-21T06:04:32.347Z,1028.99
2018-10-21T06:05:32.429Z,1029.06
2018-10-21T06:06:32.248Z,1028.99
2018-10-21T06:07:32.219Z,1028.98
2018-10-21T06:08:32.265Z,1029.02
2018-10-21T06:09:32.387Z,1029.05
2018-10-21T06:10:32.608Z,1028.99
2018-10-21T06:11:32.137Z,1029.02
2018-10-21T06:12:32.269Z,1029.08
2018-10-21T06:13:32.286Z,1029.04
2018-10-21T06:14:32.110Z,1029.01
2018-10-21T06:15:32.062Z,1029.05
2018-10-21T06:16:32.328Z,1029.01
2018-10-21T06:17:32.507Z,1029.07
2018-10-21T06:18:32.414Z,1029.09
2018-10-21T06:19:32.278Z,1029.05
2018-10-21T06:20:32.201Z,1029.06
2018-10-21T06:21:32.118Z,1029.03
2018-10-21T06:22:32.540Z,1029.03
2018-10-21T06:23:32.567Z,1029.03
2018-10-21T06:24:32.300Z,1029.05
2018-10-21T06:25:32.259Z,1029.05
2018-10-21T06:26:32.365Z,1029
2018-10-21T06:27:32.461Z,1029.04
2018-10-21T06:28:33.023Z,1029.06
2018-10-21T06:29:32.341Z,1029.08
2018-10-21T06:30:32.203Z,1029.07
2018-10-21T06:31:32.381Z,1029.07
2018-10-21T06:32:32.515Z,1029.01
2018-10-21T06:33:32.582Z,1029.12
2018-10-21T06:34:32.728Z,1029.17
2018-10-21T06:35:32.862Z,1029.22
2018-10-21T06:36:32.366Z,1029.23
2018-10-21T06:37:32.306Z,1029.22
2018-10-21T06:38:32.152Z,1029.24
2018-10-21T06:39:32.197Z,1029.27
2018-10-21T06:40:32.373Z,1029.26
2018-10-21T06:41:32.809Z,1029.29
2018-10-21T06:42:32.188Z,1029.28
2018-10-21T06:43:32.206Z,1029.31
2018-10-21T06:44:32.084Z,1029.4
2018-10-21T06:45:32.627Z,1029.34
2018-10-21T06:46:32.306Z,1029.33
2018-10-21T06:47:32.314Z,1029.33
2018-10-21T06:48:32.554Z,1029.33
2018-10-21T06:49:32.316Z,1029.35
2018-10-21T06:50:32.530Z,1029.41
2018-10-21T06:51:32.684Z,1029.47
2018-10-21T06:52:32.379Z,1029.45
2018-10-21T06:53:32.286Z,1029.47
2018-10-21T06:54:32.552Z,1029.52
2018-10-21T06:55:32.363Z,1029.48
2018-10-21T06:56:32.872Z,1029.55
2018-10-21T06:57:33.130Z,1029.59
2018-10-21T06:58:32.547Z,1029.57
2018-10-21T06:59:32.433Z,1029.61
2018-10-21T07:00:32.104Z,1029.57
2018-10-21T07:01:32.348Z,1029.58
2018-10-21T07:02:32.221Z,1029.62
2018-10-21T07:03:32.123Z,1029.58
2018-10-21T07:04:32.459Z,1029.65
2018-10-21T07:05:32.219Z,1029.62
2018-10-21T07:06:32.108Z,1029.69
2018-10-21T07:07:32.234Z,1029.68
2018-10-21T07:08:32.248Z,1029.74
2018-10-21T07:09:32.280Z,1029.71
2018-10-21T07:10:32.127Z,1029.69
2018-10-21T07:11:32.059Z,1029.72
2018-10-21T07:12:32.228Z,1029.72
2018-10-21T07:13:32.171Z,1029.7
2018-10-21T07:14:32.355Z,1029.7
2018-10-21T07:15:32.448Z,1029.7
2018-10-21T07:16:33.122Z,1029.65
2018-10-21T07:17:32.325Z,1029.65
2018-10-21T07:18:32.367Z,1029.7
2018-10-21T07:19:32.366Z,1029.7
2018-10-21T07:20:32.157Z,1029.75
2018-10-21T07:21:32.316Z,1029.74
2018-10-21T07:22:32.286Z,1029.73
2018-10-21T07:23:32.141Z,1029.74
2018-10-21T07:24:32.285Z,1029.73
2018-10-21T07:25:32.392Z,1029.72
2018-10-21T07:26:32.202Z,1029.78
2018-10-21T07:27:32.138Z,1029.74
2018-10-21T07:28:32.732Z,1029.77
2018-10-21T07:29:32.416Z,1029.78
2018-10-21T07:30:32.447Z,1029.81
2018-10-21T07:31:32.303Z,1029.75
2018-10-21T07:32:32.433Z,1029.8
2018-10-21T07:33:32.503Z,1029.78
2018-10-21T07:34:32.395Z,1029.79
2018-10-21T07:35:32.203Z,1029.74
2018-10-21T07:36:32.849Z,1029.76
2018-10-21T07:37:32.141Z,1029.7
2018-10-21T07:38:32.252Z,1029.73
2018-10-21T07:39:32.312Z,1029.68
2018-10-21T07:40:32.415Z,1029.74
2018-10-21T07:41:32.126Z,1029.77
2018-10-21T07:42:32.242Z,1029.76
2018-10-21T07:43:32.303Z,1029.76
2018-10-21T07:44:32.160Z,1029.77
2018-10-21T07:45:32.197Z,1029.78
2018-10-21T07:46:32.844Z,1029.77
2018-10-21T07:47:32.253Z,1029.8
2018-10-21T07:48:32.207Z,1029.82
2018-10-21T07:49:32.147Z,1029.83
2018-10-21T07:50:32.408Z,1029.87
2018-10-21T07:51:32.237Z,1029.83
2018-10-21T07:52:32.153Z,1029.84
2018-10-21T07:53:32.273Z,1029.79
2018-10-21T07:54:32.207Z,1029.83
2018-10-21T07:55:32.737Z,1029.83
2018-10-21T07:56:32.124Z,1029.81
2018-10-21T07:57:32.384Z,1029.79
2018-10-21T07:58:32.175Z,1029.8
2018-10-21T07:59:32.400Z,1029.83
2018-10-21T08:00:32.456Z,1029.84
2018-10-21T08:01:32.759Z,1029.83
2018-10-21T08:02:32.284Z,1029.81
2018-10-21T08:03:33.049Z,1029.84
2018-10-21T08:04:32.264Z,1029.82
2018-10-21T08:05:32.192Z,1029.78
2018-10-21T08:06:32.301Z,1029.81
2018-10-21T08:07:32.300Z,1029.81
2018-10-21T08:08:32.489Z,1029.78
2018-10-21T08:09:32.237Z,1029.82
2018-10-21T08:10:32.397Z,1029.79
2018-10-21T08:11:32.256Z,1029.78
2018-10-21T08:12:32.048Z,1029.78
2018-10-21T08:13:32.147Z,1029.8
2018-10-21T08:14:32.184Z,1029.78
2018-10-21T08:15:32.470Z,1029.79
2018-10-21T08:16:32.170Z,1029.78
2018-10-21T08:17:32.173Z,1029.78
2018-10-21T08:18:32.367Z,1029.79
2018-10-21T08:19:32.155Z,1029.74
2018-10-21T08:20:32.301Z,1029.74
2018-10-21T08:21:32.352Z,1029.71
2018-10-21T08:22:32.134Z,1029.69
2018-10-21T08:23:32.115Z,1029.67
2018-10-21T08:24:32.169Z,1029.67
2018-10-21T08:25:32.176Z,1029.68
2018-10-21T08:26:32.375Z,1029.68
2018-10-21T08:27:32.065Z,1029.66
2018-10-21T08:28:32.142Z,1029.62
2018-10-21T08:29:32.330Z,1029.6
2018-10-21T08:30:32.211Z,1029.65
2018-10-21T08:31:32.301Z,1029.64
2018-10-21T08:32:32.760Z,1029.61
2018-10-21T08:33:32.072Z,1029.62
2018-10-21T08:34:32.203Z,1029.6
2018-10-21T08:35:32.009Z,1029.66
2018-10-21T08:36:32.459Z,1029.66
2018-10-21T08:37:32.038Z,1029.64
2018-10-21T08:38:32.229Z,1029.65
2018-10-21T08:39:32.566Z,1029.61
2018-10-21T08:40:32.200Z,1029.59
2018-10-21T08:41:32.634Z,1029.61
2018-10-21T08:42:32.521Z,1029.57
2018-10-21T08:43:32.288Z,1029.54
2018-10-21T08:44:32.488Z,1029.58
2018-10-21T08:45:32.237Z,1029.52
2018-10-21T08:46:32.327Z,1029.52
2018-10-21T08:47:32.446Z,1029.53
2018-10-21T08:48:32.116Z,1029.5
2018-10-21T08:49:32.448Z,1029.48
2018-10-21T08:50:32.767Z,1029.45
2018-10-21T08:51:32.141Z,1029.42
2018-10-21T08:52:32.227Z,1029.43
2018-10-21T08:53:32.292Z,1029.38
2018-10-21T08:54:32.159Z,1029.41
2018-10-21T08:55:32.190Z,1029.4
2018-10-21T08:56:32.261Z,1029.42
2018-10-21T08:57:32.064Z,1029.39
2018-10-21T08:58:32.490Z,1029.38
2018-10-21T08:59:32.287Z,1029.36
2018-10-21T09:00:32.137Z,1029.31
2018-10-21T09:01:32.101Z,1029.25
2018-10-21T09:02:32.614Z,1029.29
2018-10-21T09:03:32.214Z,1029.3
2018-10-21T09:04:32.345Z,1029.29
2018-10-21T09:05:32.177Z,1029.3
2018-10-21T09:06:32.056Z,1029.34
2018-10-21T09:07:32.404Z,1029.36
2018-10-21T09:08:32.316Z,1029.33
2018-10-21T09:09:32.368Z,1029.32
2018-10-21T09:10:33.060Z,1029.32
2018-10-21T09:11:32.319Z,1029.32
2018-10-21T09:12:32.470Z,1029.33
2018-10-21T09:13:32.333Z,1029.31
2018-10-21T09:14:32.282Z,1029.33
2018-10-21T09:15:32.686Z,1029.36
2018-10-21T09:16:32.706Z,1029.33
2018-10-21T09:17:32.379Z,1029.34
2018-10-21T09:18:32.211Z,1029.29
2018-10-21T09:19:32.068Z,1029.32
2018-10-21T09:20:32.233Z,1029.28
2018-10-21T09:21:32.167Z,1029.26
2018-10-21T09:22:32.241Z,1029.29
2018-10-21T09:23:32.195Z,1029.36
2018-10-21T09:24:32.136Z,1029.31
2018-10-21T09:25:32.748Z,1029.33
2018-10-21T09:26:32.121Z,1029.27
2018-10-21T09:27:32.199Z,1029.35
2018-10-21T09:28:32.078Z,1029.34
2018-10-21T09:29:32.258Z,1029.32
2018-10-21T09:30:32.127Z,1029.29
2018-10-21T09:31:32.243Z,1029.34
2018-10-21T09:32:32.348Z,1029.34
2018-10-21T09:33:32.243Z,1029.34
2018-10-21T09:34:32.514Z,1029.31
2018-10-21T09:35:32.075Z,1029.33
2018-10-21T09:36:32.209Z,1029.38
2018-10-21T09:37:32.156Z,1029.29
2018-10-21T09:38:32.733Z,1029.29
2018-10-21T09:39:32.182Z,1029.35
2018-10-21T09:40:32.275Z,1029.31
2018-10-21T09:41:32.244Z,1029.33
2018-10-21T09:42:32.059Z,1029.31
2018-10-21T09:43:32.362Z,1029.26
2018-10-21T09:44:32.244Z,1029.33
2018-10-21T09:45:32.428Z,1029.27
2018-10-21T09:46:32.400Z,1029.31
2018-10-21T09:47:32.289Z,1029.34
2018-10-21T09:48:32.329Z,1029.28
2018-10-21T09:49:32.587Z,1029.28
2018-10-21T09:50:32.244Z,1029.31
2018-10-21T09:51:32.333Z,1029.25
2018-10-21T09:52:32.154Z,1029.28
2018-10-21T09:53:32.214Z,1029.2
2018-10-21T09:54:32.446Z,1029.29
2018-10-21T09:55:32.125Z,1029.27
2018-10-21T09:56:32.251Z,1029.24
2018-10-21T09:57:32.463Z,1029.28
2018-10-21T09:58:32.415Z,1029.22
2018-10-21T09:59:32.211Z,1029.2
2018-10-21T10:00:32.045Z,1029.17
2018-10-21T10:01:32.504Z,1029.2
2018-10-21T10:02:32.407Z,1029.2
2018-10-21T10:03:32.177Z,1029.17
2018-10-21T10:04:32.098Z,1029.17
2018-10-21T10:05:32.167Z,1029.17
2018-10-21T10:06:32.237Z,1029.13
2018-10-21T10:07:32.091Z,1029.09
2018-10-21T10:08:32.252Z,1029.08
2018-10-21T10:09:32.088Z,1029.06
2018-10-21T10:10:32.234Z,1029.07
2018-10-21T10:11:32.269Z,1029.06
2018-10-21T10:12:32.204Z,1029.06
2018-10-21T10:13:32.164Z,1029.01
2018-10-21T10:14:32.089Z,1029.01
2018-10-21T10:15:32.454Z,1029
2018-10-21T10:16:32.390Z,1028.98
2018-10-21T10:17:32.554Z,1028.99
2018-10-21T10:18:32.311Z,1028.96
2018-10-21T10:20:02.229Z,1028.91
2018-10-21T10:21:02.265Z,1028.88
2018-10-21T10:22:02.170Z,1028.88
2018-10-21T10:23:02.370Z,1028.88
2018-10-21T10:24:02.922Z,1028.85
2018-10-21T10:25:02.391Z,1028.89
2018-10-21T10:26:02.040Z,1028.84
2018-10-21T10:27:02.026Z,1028.86
2018-10-21T10:28:02.666Z,1028.89
2018-10-21T10:29:02.197Z,1028.82
2018-10-21T10:30:03.476Z,1028.79
2018-10-21T10:31:24.000Z,1028.8
2018-10-21T10:32:24.133Z,1028.79
2018-10-21T10:33:24.306Z,1028.76
2018-10-21T10:34:24.214Z,1028.75
2018-10-21T10:35:24.133Z,1028.72
2018-10-21T10:36:24.175Z,1028.69
2018-10-21T10:37:24.265Z,1028.72
2018-10-21T10:38:24.118Z,1028.71
2018-10-21T10:39:24.073Z,1028.68
2018-10-21T10:40:24.052Z,1028.63
2018-10-21T10:41:24.485Z,1028.67
2018-10-21T10:42:24.371Z,1028.63
2018-10-21T10:43:43.662Z,1028.67
2018-10-21T10:44:43.875Z,1028.62
2018-10-21T10:45:43.697Z,1028.61
2018-10-21T10:47:13.656Z,1028.59
2018-10-21T10:48:13.476Z,1028.58
2018-10-21T10:49:13.969Z,1028.54
2018-10-21T10:50:13.820Z,1028.53
2018-10-21T10:52:07.224Z,1028.46
2018-10-21T10:53:37.732Z,1028.51
2018-10-21T10:58:26.420Z,1028.37
2018-10-21T10:59:09.671Z,1028.29
2018-10-21T11:00:10.308Z,1028.23
2018-10-21T11:01:15.720Z,1028.25
2018-10-21T11:02:15.251Z,1028.22
2018-10-21T11:03:15.291Z,1028.18
2018-10-21T11:04:15.502Z,1028.21
2018-10-21T11:05:15.148Z,1028.19
2018-10-21T11:06:15.655Z,1028.2
2018-10-21T11:07:15.766Z,1028.19
2018-10-21T11:08:15.404Z,1028.2
2018-10-21T11:09:15.760Z,1028.1
2018-10-21T11:10:15.897Z,1028.13
2018-10-21T11:11:15.369Z,1028.14
2018-10-21T11:12:15.169Z,1028.14
2018-10-21T11:13:15.985Z,1028.15
2018-10-21T11:14:15.365Z,1028.09
2018-10-21T11:15:15.412Z,1028.07
2018-10-21T11:16:15.776Z,1028.1
2018-10-21T11:17:15.287Z,1028.04
2018-10-21T11:18:15.120Z,1028.01
2018-10-21T11:19:15.591Z,1027.97
2018-10-21T11:21:31.053Z,1027.96
2018-10-21T11:22:30.887Z,1027.96
2018-10-21T11:24:00.335Z,1027.93
2018-10-21T11:25:00.430Z,1027.97
2018-10-21T11:26:00.562Z,1027.91
2018-10-21T11:27:00.569Z,1027.95
2018-10-21T11:27:44.874Z,1027.97
2018-10-21T11:28:29.035Z,1027.94
2018-10-21T11:29:28.742Z,1027.9
2018-10-21T11:30:28.847Z,1027.9
2018-10-21T11:31:29.022Z,1027.88
2018-10-21T11:32:28.940Z,1027.91
2018-10-21T11:33:29.005Z,1027.91
2018-10-21T11:34:28.837Z,1027.85
2018-10-21T11:35:28.792Z,1027.82
2018-10-21T11:36:29.177Z,1027.85
2018-10-21T11:37:29.747Z,1027.82
2018-10-21T11:38:29.239Z,1027.77
2018-10-21T11:39:29.034Z,1027.73
2018-10-21T11:40:28.877Z,1027.68
2018-10-21T11:41:28.916Z,1027.75
2018-10-21T11:42:29.193Z,1027.73
2018-10-21T11:43:29.055Z,1027.66
2018-10-21T11:44:28.994Z,1027.69
2018-10-21T11:45:29.131Z,1027.74
2018-10-21T11:46:29.328Z,1027.71
2018-10-21T11:47:29.416Z,1027.69
2018-10-21T11:48:29.049Z,1027.73
2018-10-21T11:49:29.054Z,1027.73
2018-10-21T11:50:28.905Z,1027.71
2018-10-21T11:51:28.835Z,1027.67
2018-10-21T11:52:29.365Z,1027.67
2018-10-21T11:53:29.294Z,1027.68
2018-10-21T11:54:29.395Z,1027.72
2018-10-21T11:55:28.945Z,1027.64
2018-10-21T11:56:29.292Z,1027.65
2018-10-21T11:57:28.988Z,1027.6
2018-10-21T11:58:29.453Z,1027.64
2018-10-21T11:59:28.816Z,1027.65
2018-10-21T12:00:28.940Z,1027.67
2018-10-21T12:01:29.014Z,1027.68
2018-10-21T12:02:28.925Z,1027.65
2018-10-21T12:03:29.323Z,1027.64
2018-10-21T12:04:29.146Z,1027.55
2018-10-21T12:05:29.236Z,1027.55
2018-10-21T12:06:30.036Z,1027.55
2018-10-21T12:07:28.869Z,1027.5
2018-10-21T12:08:28.965Z,1027.5
2018-10-21T12:09:29.130Z,1027.53
2018-10-21T12:10:29.433Z,1027.51
2018-10-21T12:11:29.191Z,1027.46
2018-10-21T12:12:29.052Z,1027.45
2018-10-21T12:13:29.062Z,1027.44
2018-10-21T12:14:28.896Z,1027.41
2018-10-21T12:15:29.014Z,1027.38
2018-10-21T12:16:29.240Z,1027.35